Weather at Montreal / Pierre Elliott Trudeau International Airport

Public forecast

Using degrees Celsius for public forecast. Weather courtesy of forecast.io.

Current aviation weather report (METAR) for Montreal / Pierre Elliott Trudeau International Airport

Retrieved 2020/10/27 00:39 UTC (0 seconds ago):

CYUL 270039Z 32006KT 12SM -RA BKN002 OVC010 03/02 A3010 RMK SF6NS2 SLP194

Aviation forecast (TAF) for Montreal / Pierre Elliott Trudeau International Airport

Retrieved 2020-10-27 00:42 UTC (0 seconds ago):

TAF CYUL 262339Z 2700/2724 34006KT 2SM -RA BR BKN003 OVC012 TEMPO 2700/2704 P6SM -RA SCT003 OVC012 FM270400 28010KT P6SM BKN008 OVC080 TEMPO 2704/2710 BKN015 OVC080 FM271000 30008KT P6SM FEW010 SCT120 FM271800 25012KT P6SM BKN120 BKN170 RMK NXT FCST BY 270300Z